Adams City, Colorado
Current Conditions -  °F | °C
As of 8:53 AM on Friday 28 Nov 2014 (Local Time) from KDEN Reporting Station
Broken Clouds Broken Clouds  
Wind Chill: 45°   Ceiling: 22000
Heat Index: 49°   Visibility: 10mi
Dew Point: 21°   Wind: 9mph
Humidity: 33%   Direction: 170°S
Pressure: 29.95"   Gusts: NA
Location:  39.8641°N, 104.821°W
Report Text: KDEN 281553Z 17008KT 10SM FEW120 BKN220 09/M06 A2995 RMK AO2 SLP114 T00941061 $
Loading
Personal Weather Stations






























Interactive Weather Map New forecast layout! Learn more

10-Day Weather Forecast

Advertisements
Track Severe Weather on mobile